Time;durP1;ratioP1;P1;durP2;ratioP2;P2;SDS_P1;SDS_P2;PMS_P1;PMS_P2;Temp;Humidity;BMP_temperature;BMP_pressure;BME280_temperature;BME280_humidity;BME280_pressure;Samples;Min_cycle;Max_cycle;Signal;HPM_P1;HPM_P2
2022/08/27 00:01:49;;;;;;;;;;;15.30;99.90;;;;;;5087592;28;20039;-75
2022/08/27 00:04:14;;;;;;;0.30;0.30;;;15.40;99.90;;;;;;5073822;28;19916;-76
2022/08/27 00:06:40;;;;;;;0.20;0.20;;;15.40;99.90;;;;;;5084968;28;20081;-75
2022/08/27 00:09:06;;;;;;;;;;;15.50;99.90;;;;;;5084399;28;20492;-77
2022/08/27 00:11:33;;;;;;;0.40;0.40;;;15.50;99.90;;;;;;5093900;28;20015;-78
2022/08/27 00:14:00;;;;;;;0.40;0.40;;;15.60;99.90;;;;;;5080568;28;20036;-73
2022/08/27 00:16:26;;;;;;;0.30;0.30;;;15.60;99.90;;;;;;5084354;28;20044;-76
2022/08/27 00:18:54;;;;;;;0.30;0.30;;;15.60;99.90;;;;;;5072546;28;20737;-75
2022/08/27 00:21:20;;;;;;;2.17;1.10;;;15.70;99.90;;;;;;5090281;28;20385;-73
2022/08/27 00:23:46;;;;;;;0.20;0.20;;;15.70;99.90;;;;;;5089876;28;20067;-74
2022/08/27 00:26:13;;;;;;;0.30;0.30;;;15.70;99.90;;;;;;5083792;28;20490;-75
2022/08/27 00:28:40;;;;;;;0.60;0.60;;;15.70;99.90;;;;;;5086581;28;20044;-74
2022/08/27 00:31:06;;;;;;;0.20;0.20;;;15.70;99.90;;;;;;5075529;28;20079;-74
2022/08/27 00:33:32;;;;;;;0.65;0.65;;;15.70;99.90;;;;;;5085608;28;20121;-77
2022/08/27 00:35:58;;;;;;;0.22;0.22;;;15.70;99.90;;;;;;5084733;28;20067;-75
2022/08/27 00:38:24;;;;;;;;;;;15.70;99.90;;;;;;5087512;28;20117;-77
2022/08/27 00:40:51;;;;;;;0.32;0.32;;;15.60;99.90;;;;;;5087923;28;19966;-76
2022/08/27 00:43:30;;;;;;;0.30;0.30;;;15.60;99.90;;;;;;5091334;28;20043;-73
2022/08/27 00:46:03;;;;;;;0.20;0.20;;;15.60;99.90;;;;;;5087094;28;20435;-76
2022/08/27 00:48:33;;;;;;;0.20;0.20;;;15.50;99.90;;;;;;5088099;28;20040;-76
2022/08/27 00:51:00;;;;;;;0.38;0.38;;;15.50;99.90;;;;;;5087740;28;20138;-76
2022/08/27 00:53:32;;;;;;;0.30;0.30;;;15.50;99.90;;;;;;5092909;28;20518;-75
2022/08/27 00:56:15;;;;;;;0.20;0.20;;;15.50;99.90;;;;;;5086051;28;20408;-76
2022/08/27 00:58:46;;;;;;;0.47;0.47;;;15.50;99.90;;;;;;5092532;28;20044;-76
2022/08/27 01:01:16;;;;;;;0.38;0.38;;;15.50;99.90;;;;;;5086182;28;20040;-76
2022/08/27 01:03:46;;;;;;;0.35;0.35;;;15.50;99.90;;;;;;5104988;28;20039;-73
2022/08/27 01:06:14;;;;;;;0.30;0.30;;;15.50;99.90;;;;;;5113348;28;20119;-74
2022/08/27 01:08:44;;;;;;;0.30;0.30;;;15.40;99.90;;;;;;5089763;28;20547;-74
2022/08/27 01:11:10;;;;;;;0.22;0.22;;;15.40;99.90;;;;;;5089717;28;20489;-77
2022/08/27 01:13:37;;;;;;;0.20;0.20;;;15.40;99.90;;;;;;5093962;28;20112;-76
2022/08/27 01:16:05;;;;;;;0.32;0.32;;;15.40;99.90;;;;;;5092504;28;20130;-74
2022/08/27 01:18:36;;;;;;;0.30;0.30;;;15.40;99.90;;;;;;5072262;28;20104;-73
2022/08/27 01:21:06;;;;;;;0.35;0.32;;;15.40;99.90;;;;;;5088605;28;20385;-74
2022/08/27 01:23:43;;;;;;;0.40;0.40;;;15.40;99.90;;;;;;5091497;28;20075;-77
2022/08/27 01:26:13;;;;;;;0.25;0.25;;;15.40;99.90;;;;;;5101491;28;20387;-77
2022/08/27 01:28:39;;;;;;;0.20;0.20;;;15.30;99.90;;;;;;5090956;28;20487;-76
2022/08/27 01:31:07;;;;;;;0.30;0.30;;;15.30;99.90;;;;;;5091008;28;20057;-76
2022/08/27 01:33:33;;;;;;;0.30;0.30;;;15.20;99.90;;;;;;5086728;28;20051;-76
2022/08/27 01:35:59;;;;;;;0.35;0.35;;;15.10;99.90;;;;;;5088569;28;20469;-73
2022/08/27 01:38:26;;;;;;;0.40;0.40;;;15.00;99.90;;;;;;5089232;28;20079;-74
2022/08/27 01:40:52;;;;;;;0.30;0.30;;;14.90;99.90;;;;;;5092522;28;20477;-75
2022/08/27 01:43:24;;;;;;;0.40;0.40;;;14.90;99.90;;;;;;5077638;28;20421;-75
2022/08/27 01:45:51;;;;;;;0.30;0.30;;;14.80;99.90;;;;;;5100400;28;20047;-75
2022/08/27 01:48:19;;;;;;;0.60;0.60;;;14.80;99.90;;;;;;5092278;28;20040;-72
2022/08/27 01:50:47;;;;;;;0.30;0.30;;;14.70;99.90;;;;;;5070887;28;20672;-73
2022/08/27 01:53:16;;;;;;;0.30;0.30;;;14.70;99.90;;;;;;5092565;28;20089;-75
2022/08/27 01:55:43;;;;;;;0.25;0.25;;;14.70;99.90;;;;;;5095878;28;20045;-75
2022/08/27 01:58:10;;;;;;;0.30;0.30;;;14.70;99.90;;;;;;5083499;28;20556;-73
2022/08/27 02:00:39;;;;;;;0.30;0.30;;;14.70;99.90;;;;;;5093878;28;20048;-75
2022/08/27 02:03:07;;;;;;;0.32;0.32;;;14.60;99.90;;;;;;5086360;28;20048;-73
2022/08/27 02:05:33;;;;;;;0.82;0.82;;;14.60;99.90;;;;;;5108548;28;20048;-73
2022/08/27 02:07:59;;;;;;;0.38;0.38;;;14.60;99.90;;;;;;5102845;28;20048;-74
2022/08/27 02:10:29;;;;;;;0.30;0.30;;;14.60;99.90;;;;;;5110486;28;20122;-74
2022/08/27 02:12:55;;;;;;;0.20;0.20;;;14.60;99.90;;;;;;5091893;28;20043;-74
2022/08/27 02:15:22;;;;;;;0.30;0.30;;;14.60;99.90;;;;;;5087055;28;20032;-79
2022/08/27 02:17:49;;;;;;;0.20;0.20;;;14.60;99.90;;;;;;5089599;28;20063;-75
2022/08/27 02:20:15;;;;;;;0.30;0.30;;;14.70;99.90;;;;;;5089174;28;20497;-74
2022/08/27 02:22:41;;;;;;;0.50;0.50;;;14.70;99.90;;;;;;5086003;28;20564;-75
2022/08/27 02:25:11;;;;;;;0.40;0.40;;;14.70;99.90;;;;;;5093118;28;20040;-74
2022/08/27 02:27:37;;;;;;;0.30;0.30;;;14.70;99.90;;;;;;5071940;28;20048;-74
2022/08/27 02:30:03;;;;;;;;;;;14.60;99.90;;;;;;5094274;28;20090;-75
2022/08/27 02:32:29;;;;;;;0.20;0.20;;;14.60;99.90;;;;;;5094346;28;19916;-74
2022/08/27 02:34:55;;;;;;;0.35;0.35;;;14.50;99.90;;;;;;5087952;28;20046;-75
2022/08/27 02:37:22;;;;;;;0.30;0.30;;;14.50;99.90;;;;;;5087025;28;20051;-75
2022/08/27 02:39:47;;;;;;;0.30;0.30;;;14.40;99.90;;;;;;5084313;28;20044;-74
2022/08/27 02:42:13;;;;;;;0.20;0.20;;;14.40;99.90;;;;;;5092972;28;20147;-75
2022/08/27 02:44:39;;;;;;;0.25;0.25;;;14.30;99.90;;;;;;5070416;28;20126;-75
2022/08/27 02:47:05;;;;;;;0.30;0.30;;;14.20;99.90;;;;;;5086222;28;20050;-74
2022/08/27 02:49:32;;;;;;;0.22;0.22;;;14.20;99.90;;;;;;5083061;28;20036;-76
2022/08/27 02:51:58;;;;;;;0.30;0.30;;;14.20;99.90;;;;;;5084625;28;20050;-75
2022/08/27 02:54:25;;;;;;;0.30;0.30;;;14.10;99.90;;;;;;5068460;28;20121;-75
2022/08/27 02:56:53;;;;;;;0.55;0.55;;;14.10;99.90;;;;;;5088750;28;20044;-75
2022/08/27 02:59:19;;;;;;;0.30;0.30;;;14.10;99.90;;;;;;5089517;28;20124;-76
2022/08/27 03:01:45;;;;;;;0.63;0.60;;;14.10;99.90;;;;;;5086262;28;20093;-75
2022/08/27 03:04:11;;;;;;;0.30;0.30;;;14.10;99.90;;;;;;5107823;28;20047;-76
2022/08/27 03:06:37;;;;;;;0.30;0.30;;;14.00;99.90;;;;;;5105123;28;20046;-75
2022/08/27 03:09:03;;;;;;;;;;;13.90;99.90;;;;;;5111704;28;20039;-76
2022/08/27 03:11:28;;;;;;;0.30;0.30;;;13.90;99.90;;;;;;5087966;28;19916;-76
2022/08/27 03:13:54;;;;;;;0.40;0.40;;;13.80;99.90;;;;;;5088617;28;20036;-74
2022/08/27 03:16:20;;;;;;;0.22;0.22;;;13.70;99.90;;;;;;5072881;28;20032;-74
2022/08/27 03:18:46;;;;;;;0.52;0.52;;;13.70;99.90;;;;;;5091833;28;20083;-75
2022/08/27 03:21:20;;;;;;;0.20;0.20;;;13.60;99.90;;;;;;5068156;28;20036;-78
2022/08/27 03:23:47;;;;;;;0.30;0.30;;;13.60;99.90;;;;;;5069716;28;20044;-77
2022/08/27 03:26:13;;;;;;;0.68;0.68;;;13.60;99.90;;;;;;5087962;28;20098;-75
2022/08/27 03:28:39;;;;;;;;;;;13.50;99.90;;;;;;5086687;28;20052;-77
2022/08/27 03:31:07;;;;;;;0.40;0.40;;;13.50;99.90;;;;;;5084036;28;20305;-77
2022/08/27 03:33:36;;;;;;;0.30;0.30;;;13.50;99.90;;;;;;5082176;28;20036;-78
2022/08/27 03:36:03;;;;;;;0.50;0.50;;;13.50;99.90;;;;;;5086335;28;20040;-74
2022/08/27 03:38:29;;;;;;;0.40;0.40;;;13.40;99.90;;;;;;5077302;28;20121;-77
2022/08/27 03:40:55;;;;;;;0.35;0.35;;;13.40;99.90;;;;;;5093072;28;20044;-77
2022/08/27 03:43:21;;;;;;;;;;;13.40;99.90;;;;;;5097728;28;20555;-76
2022/08/27 03:45:53;;;;;;;0.30;0.30;;;13.40;99.90;;;;;;5079808;28;19916;-76
2022/08/27 03:48:20;;;;;;;0.50;0.50;;;13.40;99.90;;;;;;5060220;28;20570;-77
2022/08/27 03:50:47;;;;;;;0.35;0.35;;;13.40;99.90;;;;;;5082789;28;20135;-76
2022/08/27 03:53:14;;;;;;;0.40;0.40;;;13.40;99.90;;;;;;5092168;28;20797;-78
2022/08/27 03:55:41;;;;;;;0.35;0.35;;;13.40;99.90;;;;;;5064842;28;20044;-78
2022/08/27 03:58:10;;;;;;;0.40;0.40;;;13.40;99.90;;;;;;5081536;28;20102;-76
2022/08/27 04:00:38;;;;;;;0.32;0.32;;;13.30;99.90;;;;;;5064124;28;20561;-80
2022/08/27 04:03:05;;;;;;;0.32;0.32;;;13.30;99.90;;;;;;5083311;28;20132;-76
2022/08/27 04:05:32;;;;;;;0.35;0.35;;;13.30;99.90;;;;;;5093720;28;20048;-75
2022/08/27 04:07:57;;;;;;;0.40;0.40;;;13.30;99.90;;;;;;5092421;28;20043;-74
2022/08/27 04:10:23;;;;;;;0.30;0.30;;;13.20;99.90;;;;;;5087928;28;20456;-74
2022/08/27 04:12:49;;;;;;;;;;;13.20;99.90;;;;;;5088999;28;20505;-76
2022/08/27 04:15:14;;;;;;;0.50;0.50;;;13.10;99.90;;;;;;5072301;28;19927;-76
2022/08/27 04:17:41;;;;;;;0.30;0.30;;;13.10;99.90;;;;;;5072166;28;20097;-74
2022/08/27 04:20:08;;;;;;;1.05;0.98;;;13.10;99.90;;;;;;5071138;28;20093;-72
2022/08/27 04:22:34;;;;;;;0.30;0.30;;;13.00;99.90;;;;;;5077655;28;20040;-76
2022/08/27 04:25:00;;;;;;;0.30;0.30;;;13.00;99.90;;;;;;5068081;28;20511;-73
2022/08/27 04:27:26;;;;;;;0.40;0.40;;;12.90;99.90;;;;;;5086796;28;20053;-77
2022/08/27 04:29:54;;;;;;;0.30;0.30;;;12.90;99.90;;;;;;5085980;28;20548;-74
2022/08/27 04:32:20;;;;;;;0.30;0.30;;;12.80;99.90;;;;;;5088112;28;20059;-75
2022/08/27 04:34:46;;;;;;;0.35;0.35;;;12.80;99.90;;;;;;5086889;28;20044;-73
2022/08/27 04:37:11;;;;;;;0.35;0.35;;;12.80;99.90;;;;;;5089377;28;20040;-76
2022/08/27 04:39:38;;;;;;;0.30;0.30;;;12.80;99.90;;;;;;5083831;28;20462;-74
2022/08/27 04:42:04;;;;;;;0.30;0.30;;;12.90;99.90;;;;;;5085526;28;20047;-72
2022/08/27 04:44:32;;;;;;;0.50;0.50;;;12.90;99.90;;;;;;5084371;28;20102;-73
2022/08/27 04:47:00;;;;;;;0.40;0.40;;;13.00;99.90;;;;;;5086405;28;20040;-75
2022/08/27 04:49:27;;;;;;;0.50;0.50;;;13.10;99.90;;;;;;5087922;28;20523;-75
2022/08/27 04:51:53;;;;;;;0.30;0.30;;;13.10;99.90;;;;;;5068862;28;20076;-75
2022/08/27 04:54:23;;;;;;;0.30;0.30;;;13.20;99.90;;;;;;5076303;28;20063;-75
2022/08/27 04:56:49;;;;;;;0.40;0.40;;;13.30;99.90;;;;;;5084505;28;20036;-72
2022/08/27 04:59:14;;;;;;;0.30;0.30;;;13.40;99.90;;;;;;5099905;28;20397;-73
2022/08/27 05:01:41;;;;;;;0.40;0.40;;;13.50;99.90;;;;;;5088027;28;20089;-74
2022/08/27 05:04:07;;;;;;;0.30;0.30;;;13.60;99.90;;;;;;5089923;28;20082;-73
2022/08/27 05:06:35;;;;;;;0.30;0.30;;;13.70;99.90;;;;;;5084243;28;20405;-73
2022/08/27 05:09:01;;;;;;;0.20;0.20;;;13.80;99.90;;;;;;5074099;28;20046;-74
2022/08/27 05:11:31;;;;;;;0.30;0.30;;;13.90;99.90;;;;;;5083572;28;20493;-72
2022/08/27 05:13:58;;;;;;;0.30;0.30;;;14.10;99.90;;;;;;5081916;28;20037;-73
2022/08/27 05:16:24;;;;;;;0.40;0.40;;;14.20;99.90;;;;;;5080481;28;20511;-73
2022/08/27 05:18:51;;;;;;;0.38;0.38;;;14.30;99.90;;;;;;5083018;28;20507;-75
2022/08/27 05:21:18;;;;;;;0.25;0.25;;;14.40;99.90;;;;;;5082740;28;20036;-73
2022/08/27 05:23:44;;;;;;;0.30;0.30;;;14.50;99.90;;;;;;5078747;28;20494;-77
2022/08/27 05:26:11;;;;;;;0.93;0.93;;;14.70;99.90;;;;;;5093024;28;20072;-78
2022/08/27 05:28:36;;;;;;;0.30;0.30;;;14.80;99.90;;;;;;5081695;28;20060;-73
2022/08/27 05:31:06;;;;;;;0.30;0.30;;;14.90;99.90;;;;;;5065786;28;20051;-73
2022/08/27 05:33:32;;;;;;;0.40;0.40;;;15.00;99.90;;;;;;5087912;28;20036;-74
2022/08/27 05:35:58;;;;;;;;;;;15.10;99.90;;;;;;5086992;28;20174;-75
2022/08/27 05:38:25;;;;;;;0.30;0.30;;;15.20;99.90;;;;;;5089812;28;19994;-74
2022/08/27 05:41:13;;;;;;;0.20;0.20;;;15.30;99.90;;;;;;5089870;28;20047;-76
2022/08/27 05:43:43;;;;;;;0.30;0.30;;;15.40;99.90;;;;;;5085440;28;20040;-81
2022/08/27 05:46:15;;;;;;;0.25;0.22;;;15.50;99.90;;;;;;5080523;28;20386;-77
2022/08/27 05:48:41;;;;;;;1.45;0.50;;;15.50;99.90;;;;;;5067272;28;20450;-76
2022/08/27 05:51:22;;;;;;;0.30;0.30;;;15.70;99.90;;;;;;5090537;28;20504;-81
2022/08/27 05:53:48;;;;;;;0.40;0.40;;;15.70;99.90;;;;;;5081452;28;20497;-79
2022/08/27 05:56:18;;;;;;;;;;;15.80;99.90;;;;;;5097181;28;20477;-80
2022/08/27 06:01:36;;;;;;;0.55;0.55;;;15.90;99.90;;;;;;5090059;28;20044;-79
2022/08/27 06:04:06;;;;;;;0.40;0.40;;;16.00;99.90;;;;;;5090009;28;20040;-79
2022/08/27 06:06:40;;;;;;;0.30;0.30;;;16.10;99.90;;;;;;5092973;28;21317;-79
2022/08/27 06:09:09;;;;;;;0.30;0.30;;;16.20;99.90;;;;;;5087235;28;20051;-79
2022/08/27 06:11:36;;;;;;;0.22;0.22;;;16.20;99.90;;;;;;5073287;28;20571;-79
2022/08/27 06:14:08;;;;;;;0.20;0.20;;;16.30;99.90;;;;;;5066265;28;20048;-79
2022/08/27 06:16:35;;;;;;;0.30;0.30;;;16.40;99.90;;;;;;5107086;28;20059;-80
2022/08/27 06:19:01;;;;;;;0.30;0.30;;;16.40;99.90;;;;;;5083139;28;20097;-79
2022/08/27 06:21:26;;;;;;;0.30;0.28;;;16.60;99.90;;;;;;5106196;28;20055;-79
2022/08/27 06:23:53;;;;;;;;;;;16.60;99.90;;;;;;5089967;28;20036;-81
2022/08/27 06:26:21;;;;;;;1.05;0.47;;;16.70;99.90;;;;;;5077347;28;19927;-79
2022/08/27 06:28:47;;;;;;;0.55;0.55;;;16.80;99.90;;;;;;5095172;28;20074;-79
2022/08/27 06:31:14;;;;;;;;;;;16.90;99.90;;;;;;5073519;28;20040;-80
2022/08/27 06:33:41;;;;;;;;;;;17.00;99.90;;;;;;5086182;28;19916;-77
2022/08/27 06:36:10;;;;;;;0.20;0.20;;;17.00;99.90;;;;;;5071014;28;20373;-78
2022/08/27 06:38:37;;;;;;;0.32;0.32;;;17.10;99.90;;;;;;5103642;28;20048;-77
2022/08/27 06:41:07;;;;;;;0.20;0.20;;;17.20;99.90;;;;;;5085751;28;20384;-78
2022/08/27 06:43:35;;;;;;;0.40;0.40;;;17.30;99.90;;;;;;5073245;28;20121;-77
2022/08/27 06:46:03;;;;;;;0.82;0.82;;;17.50;99.90;;;;;;5091034;28;20444;-79
2022/08/27 06:48:29;;;;;;;0.30;0.30;;;17.60;99.90;;;;;;5069888;28;20384;-80
2022/08/27 06:50:59;;;;;;;0.20;0.20;;;17.80;99.90;;;;;;5087350;28;20055;-80
2022/08/27 06:53:28;;;;;;;0.20;0.20;;;17.90;99.90;;;;;;5090237;28;20040;-80
2022/08/27 06:55:56;;;;;;;0.20;0.20;;;18.10;99.90;;;;;;5088592;28;20059;-80
2022/08/27 06:58:25;;;;;;;0.30;0.30;;;18.30;99.90;;;;;;5081114;28;20044;-80
2022/08/27 07:00:57;;;;;;;0.13;0.13;;;18.50;99.90;;;;;;5053880;28;20044;-80
2022/08/27 07:03:23;;;;;;;;;;;18.70;99.90;;;;;;5075922;28;20051;-80
2022/08/27 07:05:48;;;;;;;0.20;0.20;;;18.90;99.90;;;;;;5070547;28;20006;-80
2022/08/27 07:08:14;;;;;;;;;;;19.10;99.90;;;;;;5091645;28;20115;-80
2022/08/27 07:10:40;;;;;;;0.30;0.30;;;19.30;99.90;;;;;;5071474;28;20408;-80
2022/08/27 07:13:05;;;;;;;;;;;19.40;99.90;;;;;;5072499;28;20086;-79
2022/08/27 07:15:31;;;;;;;0.30;0.30;;;19.40;99.90;;;;;;5097318;28;19916;-80
2022/08/27 07:17:59;;;;;;;;;;;19.30;99.90;;;;;;5080213;28;20044;-79
2022/08/27 07:20:24;;;;;;;;;;;19.30;99.90;;;;;;5057170;28;20054;-79
2022/08/27 07:22:53;;;;;;;0.30;0.30;;;19.20;99.90;;;;;;5073619;28;20378;-80
2022/08/27 07:25:19;;;;;;;0.15;0.15;;;19.10;99.90;;;;;;5088710;28;20383;-79
2022/08/27 07:27:46;;;;;;;0.30;0.30;;;19.10;99.90;;;;;;5075887;28;20607;-79
2022/08/27 07:30:14;;;;;;;0.20;0.20;;;19.10;99.90;;;;;;5090179;28;20498;-79
2022/08/27 07:32:40;;;;;;;0.30;0.30;;;19.10;99.90;;;;;;5065446;28;20097;-79
2022/08/27 07:35:09;;;;;;;0.20;0.20;;;19.10;99.90;;;;;;5074094;28;20401;-80
2022/08/27 07:37:36;;;;;;;0.28;0.28;;;19.10;99.90;;;;;;5087620;28;20045;-79
2022/08/27 07:40:12;;;;;;;0.38;0.38;;;19.10;99.90;;;;;;5064699;28;20050;-79
2022/08/27 07:45:25;;;;;;;0.30;0.30;;;19.10;99.90;;;;;;5089038;28;20070;-80
2022/08/27 07:47:51;;;;;;;0.30;0.30;;;19.00;99.90;;;;;;5081443;28;20091;-79
2022/08/27 07:50:21;;;;;;;0.20;0.20;;;19.00;99.90;;;;;;5083615;28;20123;-80
2022/08/27 07:52:47;;;;;;;0.22;0.22;;;19.10;99.90;;;;;;5070064;28;20036;-78
2022/08/27 07:55:13;;;;;;;0.15;0.15;;;19.10;99.90;;;;;;5070175;28;20051;-79
2022/08/27 07:57:39;;;;;;;0.30;0.30;;;19.10;99.90;;;;;;5080187;28;20040;-79
2022/08/27 08:00:10;;;;;;;0.22;0.22;;;19.10;99.90;;;;;;5086345;28;20123;-80
2022/08/27 08:02:37;;;;;;;0.20;0.20;;;19.10;99.90;;;;;;5075343;28;20056;-79
2022/08/27 08:05:05;;;;;;;0.20;0.20;;;19.30;99.90;;;;;;5071809;28;20051;-80
2022/08/27 08:07:33;;;;;;;0.35;0.35;;;19.30;99.90;;;;;;5084459;28;20040;-80
2022/08/27 08:09:59;;;;;;;0.30;0.30;;;19.50;99.90;;;;;;5072377;28;20044;-80
2022/08/27 08:12:25;;;;;;;0.38;0.38;;;19.50;99.90;;;;;;5081634;28;20496;-80
2022/08/27 08:14:56;;;;;;;0.30;0.30;;;19.50;99.90;;;;;;5094158;28;20055;-80
2022/08/27 08:17:24;;;;;;;0.40;0.40;;;19.60;99.90;;;;;;5091155;28;20119;-78
2022/08/27 08:19:50;;;;;;;0.20;0.20;;;19.60;99.90;;;;;;5075938;28;20509;-79
2022/08/27 08:22:16;;;;;;;1.27;1.23;;;19.70;99.90;;;;;;5069917;28;20125;-79
2022/08/27 08:24:41;;;;;;;0.22;0.22;;;19.80;99.90;;;;;;5077501;28;20040;-79
2022/08/27 08:27:07;;;;;;;0.20;0.20;;;19.90;99.90;;;;;;5069190;28;20060;-80
2022/08/27 08:29:33;;;;;;;;;;;20.00;99.90;;;;;;5092835;28;20148;-79
2022/08/27 08:31:58;;;;;;;0.20;0.20;;;19.90;99.90;;;;;;5089001;28;19977;-80
2022/08/27 08:34:30;;;;;;;0.20;0.20;;;19.90;99.90;;;;;;5042324;28;20033;-80
2022/08/27 08:36:57;;;;;;;0.25;0.25;;;19.80;99.90;;;;;;5089576;28;20054;-79
2022/08/27 08:39:23;;;;;;;0.35;0.35;;;19.80;99.90;;;;;;5072965;28;20040;-80
2022/08/27 08:42:01;;;;;;;0.63;0.63;;;19.90;99.90;;;;;;5085021;28;20427;-79
2022/08/27 08:44:55;;;;;;;0.30;0.30;;;19.90;99.90;;;;;;5087087;28;20054;-79
2022/08/27 08:47:25;;;;;;;0.20;0.20;;;20.10;99.90;;;;;;5078699;28;20088;-79
2022/08/27 08:50:09;;;;;;;0.22;0.22;;;20.30;99.90;;;;;;5090277;28;20098;-78
2022/08/27 08:52:52;;;;;;;0.30;0.30;;;20.50;99.90;;;;;;5093518;28;20386;-80
2022/08/27 08:55:46;;;;;;;0.20;0.20;;;20.60;99.90;;;;;;5101054;28;20045;-81
2022/08/27 08:58:24;;;;;;;0.38;0.38;;;;;;;;;;5083188;28;20056;-79
2022/08/27 09:00:56;;;;;;;0.47;0.47;;;21.10;99.90;;;;;;5080185;28;20478;-81
2022/08/27 09:03:22;;;;;;;0.20;0.20;;;21.00;99.90;;;;;;5047546;28;20052;-80
2022/08/27 09:05:59;;;;;;;0.25;0.25;;;20.80;99.90;;;;;;5060946;28;20036;-80
2022/08/27 09:08:39;;;;;;;0.30;0.30;;;20.70;99.90;;;;;;5086170;28;20747;-80
2022/08/27 09:11:07;;;;;;;0.25;0.25;;;20.70;99.90;;;;;;5075568;28;20097;-80
2022/08/27 09:13:58;;;;;;;0.22;0.22;;;20.60;99.90;;;;;;5106717;28;20048;-80
2022/08/27 09:16:26;;;;;;;0.20;0.20;;;20.60;99.90;;;;;;5086847;28;20505;-80
2022/08/27 09:18:52;;;;;;;0.50;0.50;;;20.50;99.90;;;;;;5081660;28;20396;-78
2022/08/27 09:21:34;;;;;;;0.30;0.30;;;20.40;99.90;;;;;;5098656;28;20185;-80
2022/08/27 09:24:22;;;;;;;0.20;0.20;;;20.50;99.90;;;;;;5069242;28;20056;-80
2022/08/27 09:26:48;;;;;;;0.20;0.20;;;20.50;99.90;;;;;;5080148;28;20450;-80
2022/08/27 09:29:18;;;;;;;0.30;0.30;;;20.50;99.90;;;;;;5076414;28;20047;-80
2022/08/27 09:31:57;;;;;;;0.30;0.30;;;20.50;99.90;;;;;;5086117;28;20047;-79
2022/08/27 09:34:26;;;;;;;0.20;0.20;;;20.40;99.90;;;;;;5098172;28;20071;-78
2022/08/27 09:37:00;;;;;;;0.65;0.65;;;20.40;99.90;;;;;;5089896;28;20052;-79
2022/08/27 09:39:34;;;;;;;0.20;0.20;;;20.40;99.90;;;;;;5086301;28;20045;-80
2022/08/27 09:42:01;;;;;;;0.30;0.30;;;20.30;99.90;;;;;;5056367;28;20105;-80
2022/08/27 09:44:31;;;;;;;0.20;0.20;;;20.40;99.90;;;;;;5086717;28;20110;-80
2022/08/27 09:47:01;;;;;;;0.20;0.20;;;20.30;99.90;;;;;;5082486;28;20467;-80
2022/08/27 09:49:27;;;;;;;0.30;0.30;;;20.20;99.90;;;;;;5078634;28;20052;-79
2022/08/27 09:51:54;;;;;;;0.30;0.30;;;20.10;99.90;;;;;;5088313;28;20128;-79
2022/08/27 09:54:45;;;;;;;0.22;0.22;;;20.20;99.90;;;;;;5102446;28;20043;-81
2022/08/27 09:57:13;;;;;;;0.20;0.20;;;20.30;99.90;;;;;;5089619;28;20056;-79
2022/08/27 09:59:50;;;;;;;0.30;0.30;;;20.30;99.90;;;;;;5102669;28;20491;-80
2022/08/27 10:02:18;;;;;;;0.20;0.20;;;20.40;99.90;;;;;;5084012;28;20047;-79
2022/08/27 10:05:04;;;;;;;0.30;0.30;;;20.30;99.90;;;;;;5096786;28;20133;-81
2022/08/27 10:07:54;;;;;;;0.15;0.15;;;20.30;99.90;;;;;;5081458;28;20127;-80
2022/08/27 10:10:43;;;;;;;0.20;0.20;;;20.30;99.90;;;;;;5057397;28;20041;-80
2022/08/27 10:13:16;;;;;;;0.20;0.20;;;20.30;99.90;;;;;;5072205;28;20070;-80
2022/08/27 10:16:24;;;;;;;0.20;0.20;;;20.30;99.90;;;;;;5078722;28;20072;-81
2022/08/27 10:19:08;;;;;;;;;;;20.30;99.90;;;;;;5091146;28;20044;-80
2022/08/27 10:21:52;;;;;;;0.30;0.30;;;20.40;99.90;;;;;;5104394;28;19920;-80
2022/08/27 10:25:00;;;;;;;0.40;0.40;;;20.50;99.90;;;;;;5072610;28;20466;-80
2022/08/27 10:27:37;;;;;;;;;;;20.70;99.90;;;;;;5078795;28;20504;-80
2022/08/27 10:30:08;;;;;;;0.20;0.20;;;21.20;99.90;;;;;;5083774;28;20027;-80
2022/08/27 10:32:53;;;;;;;0.75;0.75;;;21.50;99.90;;;;;;5089054;28;20076;-80
2022/08/27 10:35:27;;;;;;;0.10;0.10;;;21.90;99.90;;;;;;5101069;28;20059;-80
2022/08/27 10:38:21;;;;;;;0.30;0.30;;;22.00;99.90;;;;;;5093923;28;20051;-80
2022/08/27 10:41:21;;;;;;;0.20;0.20;;;21.80;99.90;;;;;;5095061;28;20550;-80
2022/08/27 10:44:05;;;;;;;0.20;0.20;;;21.90;99.90;;;;;;5078708;28;20052;-79
2022/08/27 10:46:58;;;;;;;0.20;0.20;;;22.20;99.90;;;;;;5078960;28;20036;-81
2022/08/27 10:49:29;;;;;;;0.20;0.20;;;22.40;99.90;;;;;;5076508;28;20047;-80
2022/08/27 10:52:17;;;;;;;0.20;0.20;;;22.10;99.90;;;;;;5067784;28;20561;-79
2022/08/27 10:54:50;;;;;;;0.22;0.22;;;21.90;99.90;;;;;;5080757;28;20541;-79
2022/08/27 10:57:34;;;;;;;0.20;0.20;;;21.60;99.90;;;;;;5094006;28;20070;-80
2022/08/27 11:00:28;;;;;;;0.35;0.30;;;21.50;99.90;;;;;;5093446;28;20393;-80
2022/08/27 11:03:09;;;;;;;1.25;1.15;;;21.40;99.90;;;;;;5061699;28;20044;-80
2022/08/27 11:05:43;;;;;;;0.20;0.20;;;21.60;99.90;;;;;;5110788;28;20050;-80
2022/08/27 11:08:21;;;;;;;0.50;0.50;;;22.00;99.90;;;;;;5094110;28;20119;-79
2022/08/27 11:10:58;;;;;;;0.30;0.30;;;22.50;99.90;;;;;;5070916;28;20070;-80
2022/08/27 11:13:37;;;;;;;0.20;0.20;;;22.70;99.90;;;;;;5081179;28;20046;-80
2022/08/27 11:16:21;;;;;;;0.30;0.30;;;22.50;99.90;;;;;;5077855;28;20098;-80
2022/08/27 11:18:59;;;;;;;0.30;0.30;;;22.30;99.90;;;;;;5070958;28;20048;-80
2022/08/27 11:21:57;;;;;;;0.20;0.20;;;21.90;99.90;;;;;;5087913;28;20083;-80
2022/08/27 11:24:35;;;;;;;0.20;0.20;;;21.80;99.90;;;;;;5042002;28;20401;-80
2022/08/27 11:27:04;;;;;;;0.30;0.30;;;21.90;99.90;;;;;;5100261;28;20055;-80
2022/08/27 11:30:19;;;;;;;0.73;0.73;;;22.10;99.90;;;;;;5089545;28;20123;-80
2022/08/27 11:33:02;;;;;;;0.20;0.20;;;22.50;99.90;;;;;;5086985;28;20066;-79
2022/08/27 11:35:53;;;;;;;0.45;0.45;;;22.50;99.90;;;;;;5060704;28;20097;-80
2022/08/27 11:38:37;;;;;;;0.38;0.38;;;22.30;99.90;;;;;;5091628;28;20047;-80
2022/08/27 11:41:35;;;;;;;0.38;0.38;;;22.20;99.90;;;;;;5083799;28;20444;-80
2022/08/27 11:44:01;;;;;;;0.28;0.28;;;22.10;99.90;;;;;;5092215;28;20044;-80
2022/08/27 11:46:43;;;;;;;0.40;0.40;;;22.00;99.90;;;;;;5110719;28;20043;-79
2022/08/27 11:49:10;;;;;;;0.35;0.35;;;21.90;99.90;;;;;;5069254;28;20037;-80
2022/08/27 11:51:39;;;;;;;0.20;0.20;;;21.90;99.90;;;;;;5080462;28;20047;-79
2022/08/27 11:54:08;;;;;;;0.73;0.38;;;22.20;99.90;;;;;;5085831;28;20040;-80
2022/08/27 11:56:40;;;;;;;0.30;0.30;;;22.30;99.90;;;;;;5094965;28;20122;-79
2022/08/27 11:59:25;;;;;;;0.22;0.22;;;22.30;99.90;;;;;;5095130;28;20071;-80
2022/08/27 12:01:52;;;;;;;0.30;0.30;;;22.20;99.90;;;;;;5089081;28;20071;-80
2022/08/27 12:04:23;;;;;;;0.40;0.40;;;22.00;99.90;;;;;;5070348;28;20499;-80
2022/08/27 12:07:06;;;;;;;0.40;0.40;;;21.90;99.90;;;;;;5089939;28;20096;-79
2022/08/27 12:09:55;;;;;;;0.25;0.25;;;22.00;99.90;;;;;;5091522;28;20085;-80
2022/08/27 12:12:51;;;;;;;0.20;0.20;;;22.40;99.90;;;;;;5050619;28;20374;-79
2022/08/27 12:15:53;;;;;;;0.30;0.30;;;22.60;99.90;;;;;;5085209;28;20044;-80
2022/08/27 12:18:32;;;;;;;0.35;0.35;;;22.40;99.90;;;;;;5102470;28;20526;-80
2022/08/27 12:21:12;;;;;;;0.20;0.20;;;22.20;99.90;;;;;;5095918;28;20044;-79
2022/08/27 12:23:45;;;;;;;0.20;0.20;;;22.30;99.90;;;;;;5087934;28;20044;-79
2022/08/27 12:26:28;;;;;;;0.30;0.30;;;22.50;99.90;;;;;;5062248;28;20059;-81
2022/08/27 12:29:30;;;;;;;0.20;0.20;;;22.70;99.90;;;;;;5085532;28;20547;-80
2022/08/27 12:32:19;;;;;;;0.30;0.30;;;22.60;99.90;;;;;;5069692;28;20131;-80
2022/08/27 12:35:11;;;;;;;0.20;0.20;;;22.50;99.00;;;;;;5070586;28;20052;-81
2022/08/27 12:37:45;;;;;;;0.20;0.20;;;22.40;99.10;;;;;;5054945;28;20052;-80
2022/08/27 12:40:25;;;;;;;0.30;0.30;;;22.50;99.90;;;;;;5094544;28;20039;-80
2022/08/27 12:43:03;;;;;;;0.93;0.93;;;22.60;99.90;;;;;;5084608;28;20071;-80
2022/08/27 12:45:29;;;;;;;3.92;0.28;;;22.80;99.70;;;;;;5057385;28;20075;-80
2022/08/27 12:47:56;;;;;;;0.20;0.20;;;22.90;97.80;;;;;;5081808;28;20036;-80
2022/08/27 12:50:29;;;;;;;0.20;0.20;;;23.30;98.50;;;;;;5084945;28;20454;-80
2022/08/27 12:53:20;;;;;;;0.20;0.20;;;23.60;99.10;;;;;;5086705;28;20037;-81
2022/08/27 12:56:04;;;;;;;0.30;0.30;;;23.50;97.10;;;;;;5057142;28;20051;-80
2022/08/27 12:59:00;;;;;;;0.20;0.20;;;23.10;99.50;;;;;;5073865;28;20043;-79
2022/08/27 13:01:44;;;;;;;0.30;0.30;;;22.70;99.90;;;;;;5075578;28;20628;-80
2022/08/27 13:04:23;;;;;;;1.08;0.60;;;22.50;99.90;;;;;;5085794;28;20084;-80
2022/08/27 13:06:49;;;;;;;0.30;0.30;;;22.40;99.90;;;;;;5073959;28;20389;-81
2022/08/27 13:09:15;;;;;;;0.47;0.47;;;22.30;99.70;;;;;;5083315;28;20137;-81
2022/08/27 13:11:54;;;;;;;0.30;0.30;;;22.10;99.90;;;;;;5110363;28;20404;-80
2022/08/27 13:14:21;;;;;;;0.35;0.35;;;22.00;99.90;;;;;;5088722;28;20055;-80
2022/08/27 13:17:01;;;;;;;0.38;0.38;;;21.90;99.90;;;;;;5087011;28;20036;-80
2022/08/27 13:19:33;;;;;;;0.35;0.25;;;21.80;99.90;;;;;;5087696;28;20047;-80
2022/08/27 13:22:00;;;;;;;0.30;0.30;;;22.30;99.90;;;;;;5073724;28;20074;-79